Monday, February 08, 2016
21:18 UTC
  |  Log In   |  Register Free
Airport Search:

Independence Municipal Airport
(KIDP)

FAA data valid effective Dec 10 2015 - Feb 4 2016 (unless otherwise noted).

 
 
 
 
 
 
 
 
 
 
 
 
 
 
Current Aviation Weather for KIDP

Weather Summary


The most recent METAR observation for IDP was updated at: 12:55 UTC
METAR for KIDP is not available. Closest METAR is for KCFV
KIDP  (most recent observation was updatred at 82:05 UTC)
082055Z AUTO 33025G37KT 10SM CLR 06/M11 A3013 RMK AO2

KCFV  (10.6 nm NW)   (most recent observation was updated at 82:05 UTC)
082052Z AUTO 32029G34KT 10SM CLR 07/M11 A3012 RMK AO2 PKWND 32038/1958 SLP204 T00671106 58013

KPPF  (16.6 nm SW)   (most recent observation was updated at 82:05 UTC)
082052Z AUTO 31022G33KT 10SM SCT060 07/M09 A3012 RMK AO2 PKWND 32036/2010 SLP202 T00671094 58014

TAF for KIDP is not available.
KBVO  (26.2 nm NE)   (most recent observation was updatred at 81:74 UTC)
081740Z 0818/0918 33016G25KT P6SM SCT060 FM090100 31007KT P6SM SKC FM091500 33010KT P6SM SKC


KCNU  (33.7 nm SW)   (most recent observation was updatred at 81:72 UTC)
081722Z 0818/0918 33026G34KT P6SM BKN040 FM082000 32026G35KT P6SM SCT045 FM090000 33017G24KT P6SM FEW040 SCT110 FM090900 32013KT P6SM SCT250


GlobalAir.com is loading additional information.
 Current Weather at IDP
43.0 F° (6.0 C°)

Northwest winds at 29.9 mph
Pressure:
30.14 in
Humidity:
31%
Wind:
Northwest at 29.9 mph
Dew Point:
14.0 F° (-10.0 C°)
Visibility:
10.00 mi
IDP NOAA Radar




Find All Airport Services Find A Hotel Find A Rental Car Find A Golf Course Find A Restaurant $100 Hamburger



Airport Weather Forecast for KIDP

Translated METAR for KIDP (2055 UTC)
METAR:
KIDP 082055Z AUTO 33025G37KT 10SM CLR 06/M11 A3013 RMK AO2
Conditions at:
KIDP (Independence Muni, KS) observed 2055 UTC 08 February 2016
Temperature:
6°C (42.8°F)
Dewpoint:
-11°C (12.2°F) [RH = 28.4]
Pressure:
30.13 inches Hg (1020.3 mb)
Winds:
from the NNW (330 degrees) at 28.8 mph (25 knots: 12.9 m/s)
gusting to 42.6 mph (37 knots: 19 m/s)
Visibility:
10 mile(s)
Ceiling:
at least 12,000 feet AGL
Clouds:
Clear below 12,000 feet AGL
Remarks:
site is un-manned
site is automated and HAS a precipitation sensor

Translated TAF for KBVO (Bartlesville Muni, OK) (1740 UTC)
TAF text:
KBVO 081740Z 0818/0918 33016G25KT P6SM SCT060
Forecast period:
Monday Feb 08 2016 18:00 UTC - Tuesday Feb 09 2016 18:00 UTC
Forecast type:
FROM: standard forecast or significant change
Winds:
from the NNW (330 degrees) at 18.4 mph (16 knots: 8.2 m/s)
gusting to 28.8 mph (25 knots: 12.9 m/s)
Visibility:
6 or more mile(s) (9.7+ km)
Ceiling:
at least 12,000 feet AGL
Clouds:
Scattered Clouds at 6,000 feet AGL
Weather:
no significant weather observed at this time
TAF text:
FM090100 31007KT P6SM SKC
Forecast period:
Tuesday Feb 09 2016 01:00 UTC - Tuesday Feb 09 2016 15:00 UTC
Forecast type:
FROM: standard forecast or significant change
Winds:
from the NW (310 degrees) at 8.1 mph (7 knots: 3.6 m/s)
Visibility:
6 or more mile(s) (9.7+ km)
Ceiling:
at least 12,000 feet AGL
Clouds:
Clear Skies
Weather:
no significant weather observed at this time
TAF text:
FM091500 33010KT P6SM SKC
Forecast period:
Tuesday Feb 09 2016 15:00 UTC - Tuesday Feb 09 2016 18:00 UTC
Forecast type:
FROM: standard forecast or significant change
Winds:
from the NNW (330 degrees) at 11.5 mph (10 knots: 5.1 m/s)
Visibility:
6 or more mile(s) (9.7+ km)
Ceiling:
at least 12,000 feet AGL
Clouds:
Clear Skies
Weather:
no significant weather observed at this time
FBO's on the Field
FBO Company Facility Photos Services Transportation Aviation Fuel Prices: Prices include tax
Catering Weather Repair Courtesy Rental Type 100LL JetA JetA+ MOGAS 8087
 
City of Independence

This FBO has not yet been rated
FS:Phillips 66
Last Updated: Jan-19
Login to update fuel prices
SS:
Contact City of IndependenceMore FBO Information
 
Add another FBO Facility Photos Catering Weather Repair Courtesy Rental Type 100LL JetA JetA+ MOGAS 8087
Services Transportation Aviation Fuel Prices: Prices include tax


model-print
model-print
model-print
model-print